createdAt,value
2018-09-20T00:00:59.841Z,77.20
2018-09-20T00:03:28.436Z,76.90
2018-09-20T00:05:56.921Z,77.40
2018-09-20T00:08:25.481Z,77.60
2018-09-20T00:10:54.080Z,77.80
2018-09-20T00:13:22.641Z,78.50
2018-09-20T00:15:51.197Z,78.60
2018-09-20T00:18:19.724Z,78.10
2018-09-20T00:20:48.259Z,78.30
2018-09-20T00:23:17.346Z,78.40
2018-09-20T00:25:45.871Z,78.90
2018-09-20T00:28:14.498Z,78.50
2018-09-20T00:30:43.018Z,78.50
2018-09-20T00:33:11.569Z,78.90
2018-09-20T00:35:40.100Z,79.10
2018-09-20T00:38:08.631Z,79.10
2018-09-20T00:40:37.204Z,78.90
2018-09-20T00:43:05.783Z,78.80
2018-09-20T00:45:34.344Z,79.00
2018-09-20T00:48:02.999Z,78.80
2018-09-20T00:50:31.577Z,78.80
2018-09-20T00:53:00.078Z,78.80
2018-09-20T00:55:28.653Z,78.90
2018-09-20T00:57:57.196Z,79.10
2018-09-20T01:00:25.840Z,79.10
2018-09-20T01:02:54.397Z,79.00
2018-09-20T01:05:22.980Z,78.90
2018-09-20T01:07:51.517Z,79.10
2018-09-20T01:10:20.560Z,79.40
2018-09-20T01:12:49.095Z,79.30
2018-09-20T01:15:17.682Z,79.80
2018-09-20T01:17:46.210Z,79.70
2018-09-20T01:20:15.457Z,79.80
2018-09-20T01:22:44.006Z,80.20
2018-09-20T01:25:12.897Z,80.40
2018-09-20T01:27:41.857Z,80.80
2018-09-20T01:30:10.449Z,81.30
2018-09-20T01:32:39.251Z,81.70
2018-09-20T01:35:07.924Z,81.90
2018-09-20T01:37:36.472Z,81.50
2018-09-20T01:40:05.103Z,81.40
2018-09-20T01:42:33.651Z,81.40
2018-09-20T01:45:02.214Z,81.50
2018-09-20T01:47:31.462Z,81.20
2018-09-20T01:50:00.161Z,81.30
2018-09-20T01:52:28.962Z,81.20
2018-09-20T01:54:57.508Z,81.40
2018-09-20T01:57:26.017Z,81.30
2018-09-20T01:59:54.566Z,81.70
2018-09-20T02:02:23.099Z,81.60
2018-09-20T02:04:51.665Z,82.00
2018-09-20T02:07:20.211Z,81.70
2018-09-20T02:09:48.749Z,81.70
2018-09-20T02:12:17.295Z,82.00
2018-09-20T02:14:45.835Z,82.10
2018-09-20T02:17:14.387Z,82.60
2018-09-20T02:19:42.948Z,82.50
2018-09-20T02:22:11.505Z,82.40
2018-09-20T02:24:40.031Z,82.30
2018-09-20T02:27:08.584Z,82.20
2018-09-20T02:29:37.124Z,82.30
2018-09-20T02:32:05.673Z,82.20
2018-09-20T02:34:34.208Z,82.00
2018-09-20T02:37:02.751Z,81.90
2018-09-20T02:39:31.277Z,82.70
2018-09-20T02:41:59.836Z,82.50
2018-09-20T02:44:28.375Z,82.30
2018-09-20T02:46:56.957Z,82.40
2018-09-20T02:49:25.486Z,82.40
2018-09-20T02:51:54.098Z,82.70
2018-09-20T02:54:22.625Z,82.50
2018-09-20T02:56:51.171Z,82.70
2018-09-20T02:59:19.692Z,82.60
2018-09-20T03:01:48.279Z,82.60
2018-09-20T03:04:16.795Z,82.80
2018-09-20T03:06:45.343Z,83.00
2018-09-20T03:09:13.877Z,83.10
2018-09-20T03:11:42.440Z,83.30
2018-09-20T03:14:10.958Z,83.60
2018-09-20T03:16:39.504Z,83.40
2018-09-20T03:19:08.031Z,83.30
2018-09-20T03:21:37.206Z,83.50
2018-09-20T03:24:05.817Z,83.90
2018-09-20T03:26:34.423Z,83.90
2018-09-20T03:29:02.962Z,84.20
2018-09-20T03:31:31.486Z,84.90
2018-09-20T03:34:00.031Z,84.70
2018-09-20T03:36:28.582Z,84.50
2018-09-20T03:38:57.091Z,84.40
2018-09-20T03:41:25.637Z,84.50
2018-09-20T03:43:54.265Z,85.00
2018-09-20T03:46:22.829Z,84.80
2018-09-20T03:48:51.371Z,84.60
2018-09-20T03:51:19.907Z,84.70
2018-09-20T03:53:48.424Z,84.70
2018-09-20T03:56:16.981Z,84.80
2018-09-20T03:58:45.524Z,85.10
2018-09-20T04:01:14.056Z,85.10
2018-09-20T04:03:42.589Z,85.00
2018-09-20T04:06:11.469Z,85.00
2018-09-20T04:08:40.006Z,85.10
2018-09-20T04:11:08.571Z,86.00
2018-09-20T04:13:37.328Z,85.70
2018-09-20T04:16:06.173Z,85.50
2018-09-20T04:18:34.972Z,85.40
2018-09-20T04:21:03.533Z,85.40
2018-09-20T04:23:32.041Z,85.40
2018-09-20T04:26:00.604Z,86.20
2018-09-20T04:28:29.126Z,85.30
2018-09-20T04:30:57.639Z,85.40
2018-09-20T04:33:26.212Z,85.50
2018-09-20T04:35:54.732Z,85.00
2018-09-20T04:38:23.278Z,86.10
2018-09-20T04:40:51.929Z,85.30
2018-09-20T04:43:20.468Z,85.30
2018-09-20T04:45:49.004Z,85.50
2018-09-20T04:48:17.576Z,85.60
2018-09-20T04:50:46.081Z,85.60
2018-09-20T04:53:14.645Z,85.80
2018-09-20T04:55:43.257Z,85.80
2018-09-20T04:58:12.487Z,86.00
2018-09-20T05:00:41.057Z,86.50
2018-09-20T05:03:09.606Z,86.30
2018-09-20T05:05:38.145Z,86.20
2018-09-20T05:08:06.696Z,86.40
2018-09-20T05:10:35.252Z,86.30
2018-09-20T05:13:03.795Z,86.40
2018-09-20T05:15:32.364Z,85.80
2018-09-20T05:18:00.908Z,86.60
2018-09-20T05:20:29.444Z,86.80
2018-09-20T05:22:57.994Z,87.00
2018-09-20T05:25:26.514Z,86.90
2018-09-20T05:27:55.080Z,87.40
2018-09-20T05:30:24.214Z,86.50
2018-09-20T05:32:52.778Z,86.50
2018-09-20T05:35:21.310Z,86.40
2018-09-20T05:37:49.875Z,86.50
2018-09-20T05:40:18.671Z,86.70
2018-09-20T05:42:47.231Z,87.20
2018-09-20T05:45:15.747Z,86.80
2018-09-20T05:47:44.313Z,86.70
2018-09-20T05:50:12.857Z,86.60
2018-09-20T05:52:41.807Z,86.60
2018-09-20T05:55:10.338Z,86.60
2018-09-20T05:57:38.877Z,86.40
2018-09-20T06:00:08.029Z,86.30
2018-09-20T06:02:36.934Z,86.30
2018-09-20T06:05:05.948Z,86.30
2018-09-20T06:07:34.566Z,86.90
2018-09-20T06:10:03.204Z,86.20
2018-09-20T06:12:31.747Z,86.50
2018-09-20T06:15:00.318Z,86.50
2018-09-20T06:17:28.838Z,86.30
2018-09-20T06:19:57.386Z,86.60
2018-09-20T06:22:25.896Z,86.60
2018-09-20T06:24:54.497Z,86.70
2018-09-20T06:27:23.027Z,86.60
2018-09-20T06:29:51.583Z,86.40
2018-09-20T06:32:20.146Z,86.30
2018-09-20T06:34:48.765Z,86.30
2018-09-20T06:37:17.292Z,86.20
2018-09-20T06:39:45.840Z,85.90
2018-09-20T06:42:14.366Z,85.60
2018-09-20T06:44:42.927Z,85.60
2018-09-20T06:47:11.546Z,85.60
2018-09-20T06:49:40.116Z,85.30
2018-09-20T06:52:08.671Z,85.00
2018-09-20T06:54:37.218Z,84.60
2018-09-20T06:57:06.750Z,84.20
2018-09-20T06:59:35.307Z,83.80
2018-09-20T07:02:03.829Z,82.90
2018-09-20T07:04:32.365Z,82.30
2018-09-20T07:07:00.912Z,81.50
2018-09-20T07:09:29.471Z,81.10
2018-09-20T07:11:57.979Z,80.60
2018-09-20T07:14:26.528Z,80.40
2018-09-20T07:16:55.062Z,80.30
2018-09-20T07:19:23.628Z,80.10
2018-09-20T07:21:52.145Z,79.80
2018-09-20T07:24:20.681Z,79.60
2018-09-20T07:26:49.218Z,79.50
2018-09-20T07:29:17.760Z,79.10
2018-09-20T07:31:46.287Z,78.50
2018-09-20T07:34:15.101Z,78.40
2018-09-20T07:36:43.653Z,78.20
2018-09-20T07:39:12.261Z,77.90
2018-09-20T07:41:40.834Z,77.70
2018-09-20T07:44:10.067Z,77.40
2018-09-20T07:46:38.601Z,77.20
2018-09-20T07:49:07.272Z,77.00
2018-09-20T07:51:35.835Z,76.80
2018-09-20T07:54:04.483Z,76.10
2018-09-20T07:56:33.606Z,75.60
2018-09-20T07:59:02.372Z,74.90
2018-09-20T08:01:31.075Z,74.30
2018-09-20T08:04:00.387Z,73.40
2018-09-20T08:06:28.975Z,72.50
2018-09-20T08:08:57.511Z,72.00
2018-09-20T08:11:26.044Z,71.50
2018-09-20T08:13:54.565Z,70.90
2018-09-20T08:16:23.145Z,70.10
2018-09-20T08:18:51.660Z,69.30
2018-09-20T08:21:20.280Z,68.90
2018-09-20T08:23:48.783Z,69.20
2018-09-20T08:26:17.338Z,68.10
2018-09-20T08:28:45.860Z,67.40
2018-09-20T08:31:14.434Z,67.40
2018-09-20T08:33:42.962Z,67.10
2018-09-20T08:36:11.542Z,66.40
2018-09-20T08:38:40.083Z,65.70
2018-09-20T08:41:08.938Z,65.40
2018-09-20T08:43:37.492Z,65.00
2018-09-20T08:46:06.042Z,65.10
2018-09-20T08:48:34.593Z,65.00
2018-09-20T08:51:03.261Z,64.40
2018-09-20T08:53:31.776Z,64.30
2018-09-20T08:56:00.399Z,63.80
2018-09-20T08:58:31.965Z,63.50
2018-09-20T09:01:01.987Z,63.00
2018-09-20T09:03:30.849Z,62.60
2018-09-20T09:05:59.604Z,62.40
2018-09-20T09:08:28.131Z,62.50
2018-09-20T09:10:56.682Z,61.50
2018-09-20T09:13:25.217Z,61.10
2018-09-20T09:15:53.768Z,60.80
2018-09-20T09:18:22.287Z,60.70
2018-09-20T09:20:50.837Z,60.40
2018-09-20T09:23:19.348Z,60.10
2018-09-20T09:25:47.905Z,59.60
2018-09-20T09:28:16.387Z,58.90
2018-09-20T09:30:44.925Z,58.60
2018-09-20T09:33:13.505Z,58.30
2018-09-20T09:35:42.065Z,58.00
2018-09-20T09:38:10.572Z,57.40
2018-09-20T09:40:39.111Z,57.00
2018-09-20T09:43:07.656Z,56.70
2018-09-20T09:45:36.208Z,56.70
2018-09-20T09:48:04.779Z,56.40
2018-09-20T09:50:33.343Z,56.10
2018-09-20T09:53:01.900Z,56.10
2018-09-20T09:55:30.453Z,55.70
2018-09-20T09:57:58.968Z,55.40
2018-09-20T10:00:32.369Z,54.80
2018-09-20T10:03:00.900Z,54.90
2018-09-20T10:05:29.464Z,54.90
2018-09-20T10:07:58.019Z,54.50
2018-09-20T10:10:26.578Z,53.70
2018-09-20T10:12:55.371Z,53.40
2018-09-20T10:15:24.233Z,53.10
2018-09-20T10:17:52.979Z,52.90
2018-09-20T10:20:21.816Z,52.40
2018-09-20T10:22:50.356Z,52.30
2018-09-20T10:25:18.909Z,52.40
2018-09-20T10:27:47.510Z,51.90
2018-09-20T10:30:16.045Z,52.10
2018-09-20T10:32:44.588Z,52.00
2018-09-20T10:35:13.088Z,51.60
2018-09-20T10:37:41.736Z,51.40
2018-09-20T10:40:10.243Z,50.30
2018-09-20T10:42:38.780Z,50.20
2018-09-20T10:45:07.320Z,49.30
2018-09-20T10:47:35.861Z,47.70
2018-09-20T10:50:04.446Z,45.80
2018-09-20T10:52:33.243Z,44.90
2018-09-20T10:55:01.774Z,43.80
2018-09-20T10:57:30.312Z,43.30
2018-09-20T10:59:58.828Z,41.40
2018-09-20T11:02:27.374Z,40.00
2018-09-20T11:04:55.906Z,39.10
2018-09-20T11:07:24.439Z,38.30
2018-09-20T11:09:52.958Z,37.80
2018-09-20T11:12:21.532Z,36.60
2018-09-20T11:14:52.943Z,35.10
2018-09-20T11:17:21.486Z,34.40
2018-09-20T11:19:50.020Z,33.00
2018-09-20T11:22:18.605Z,31.90
2018-09-20T11:24:47.201Z,32.00
2018-09-20T11:27:15.787Z,31.80
2018-09-20T11:29:44.308Z,31.00
2018-09-20T11:32:12.954Z,31.30
2018-09-20T11:34:41.498Z,31.40
2018-09-20T11:37:10.055Z,31.10
2018-09-20T11:39:38.571Z,30.00
2018-09-20T11:42:07.118Z,29.70
2018-09-20T11:44:35.640Z,28.90
2018-09-20T11:47:04.208Z,28.50
2018-09-20T11:49:32.855Z,28.10
2018-09-20T11:52:01.412Z,28.00
2018-09-20T11:54:29.983Z,27.90
2018-09-20T11:56:58.502Z,27.50
2018-09-20T11:59:27.032Z,26.90
2018-09-20T12:01:56.592Z,26.70
2018-09-20T12:04:25.047Z,27.20
2018-09-20T12:06:53.685Z,26.90
2018-09-20T12:09:23.111Z,26.80
2018-09-20T12:11:51.901Z,25.70
2018-09-20T12:14:20.593Z,25.10
2018-09-20T12:16:49.141Z,25.10
2018-09-20T12:19:19.792Z,25.60
2018-09-20T12:21:48.349Z,24.90
2018-09-20T12:24:16.864Z,24.90
2018-09-20T12:26:45.388Z,25.30
2018-09-20T12:29:13.968Z,24.60
2018-09-20T12:31:42.860Z,24.40
2018-09-20T12:34:11.418Z,24.60
2018-09-20T12:36:40.032Z,24.40
2018-09-20T12:39:11.517Z,24.30
2018-09-20T12:41:40.406Z,24.50
2018-09-20T12:44:08.939Z,24.60
2018-09-20T12:46:38.196Z,24.10
2018-09-20T12:49:07.040Z,23.60
2018-09-20T12:51:35.944Z,23.60
2018-09-20T12:54:05.075Z,23.60
2018-09-20T12:56:33.700Z,23.70
2018-09-20T12:59:02.299Z,23.10
2018-09-20T13:01:31.044Z,23.10
2018-09-20T13:03:59.614Z,22.10
2018-09-20T13:06:28.863Z,21.40
2018-09-20T13:08:57.413Z,21.40
2018-09-20T13:11:26.040Z,21.50
2018-09-20T13:13:54.605Z,22.20
2018-09-20T13:16:23.107Z,22.10
2018-09-20T13:18:51.668Z,21.30
2018-09-20T13:21:20.201Z,21.20
2018-09-20T13:23:48.840Z,21.10
2018-09-20T13:26:17.348Z,21.10
2018-09-20T13:28:45.897Z,21.40
2018-09-20T13:31:14.420Z,21.40
2018-09-20T13:33:42.961Z,21.40
2018-09-20T13:36:11.484Z,21.50
2018-09-20T13:38:40.047Z,21.40
2018-09-20T13:41:08.615Z,20.80
2018-09-20T13:43:37.183Z,20.60
2018-09-20T13:46:05.736Z,20.40
2018-09-20T13:48:34.308Z,20.30
2018-09-20T13:51:02.839Z,20.50
2018-09-20T13:53:31.388Z,20.70
2018-09-20T13:55:59.898Z,20.10
2018-09-20T13:58:28.436Z,20.10
2018-09-20T14:00:56.990Z,20.20
2018-09-20T14:03:25.565Z,20.10
2018-09-20T14:05:54.126Z,19.80
2018-09-20T14:08:22.720Z,19.40
2018-09-20T14:10:51.256Z,19.60
2018-09-20T14:13:19.795Z,20.10
2018-09-20T14:15:48.406Z,19.90
2018-09-20T14:18:16.965Z,19.80
2018-09-20T14:20:45.752Z,21.00
2018-09-20T14:23:14.266Z,19.10
2018-09-20T14:25:42.796Z,18.30
2018-09-20T14:28:11.334Z,18.60
2018-09-20T14:30:39.855Z,18.20
2018-09-20T14:33:08.368Z,17.90
2018-09-20T14:35:36.913Z,18.00
2018-09-20T14:38:05.745Z,18.10
2018-09-20T14:40:34.325Z,18.60
2018-09-20T14:43:02.840Z,18.60
2018-09-20T14:45:31.380Z,18.30
2018-09-20T14:48:00.820Z,18.10
2018-09-20T14:50:30.751Z,18.20
2018-09-20T14:53:00.125Z,18.30
2018-09-20T14:55:29.758Z,18.10
2018-09-20T14:57:59.171Z,18.10
2018-09-20T15:00:28.513Z,18.20
2018-09-20T15:02:58.024Z,18.10
2018-09-20T15:05:27.480Z,18.10
2018-09-20T15:07:57.043Z,18.90
2018-09-20T15:10:26.714Z,18.80
2018-09-20T15:12:56.222Z,18.40
2018-09-20T15:15:25.695Z,18.60
2018-09-20T15:17:55.257Z,19.10
2018-09-20T15:20:24.735Z,19.00
2018-09-20T15:22:54.329Z,18.70
2018-09-20T15:25:23.932Z,18.40
2018-09-20T15:27:53.456Z,18.20
2018-09-20T15:30:23.069Z,18.80
2018-09-20T15:32:52.669Z,18.80
2018-09-20T15:35:21.464Z,18.70
2018-09-20T15:37:50.328Z,19.00
2018-09-20T15:40:18.884Z,19.00
2018-09-20T15:42:47.463Z,19.40
2018-09-20T15:45:16.004Z,19.90
2018-09-20T15:47:44.536Z,20.30
2018-09-20T15:50:13.110Z,20.70
2018-09-20T15:52:41.672Z,21.00
2018-09-20T15:55:10.209Z,21.50
2018-09-20T15:57:38.918Z,21.60
2018-09-20T16:00:07.744Z,21.60
2018-09-20T16:02:36.260Z,21.60
2018-09-20T16:05:04.878Z,21.70
2018-09-20T16:07:33.434Z,21.80
2018-09-20T16:10:02.447Z,22.10
2018-09-20T16:12:30.987Z,22.30
2018-09-20T16:14:59.595Z,22.50
2018-09-20T16:17:28.216Z,23.10
2018-09-20T16:19:56.884Z,23.00
2018-09-20T16:22:25.440Z,23.10
2018-09-20T16:24:54.001Z,23.40
2018-09-20T16:27:22.538Z,23.50
2018-09-20T16:30:02.232Z,23.90
2018-09-20T16:32:42.039Z,24.30
2018-09-20T16:36:17.734Z,24.60
2018-09-20T16:38:50.463Z,24.90
2018-09-20T16:41:22.324Z,25.10
2018-09-20T16:43:50.894Z,25.20
2018-09-20T16:46:19.782Z,25.30
2018-09-20T16:48:48.566Z,25.40
2018-09-20T16:51:17.097Z,25.60
2018-09-20T16:53:45.638Z,25.80
2018-09-20T16:56:14.143Z,26.10
2018-09-20T16:58:49.387Z,26.80
2018-09-20T17:01:18.898Z,27.40
2018-09-20T17:03:47.762Z,28.30
2018-09-20T17:06:16.813Z,29.20
2018-09-20T17:08:46.256Z,30.20
2018-09-20T17:11:14.777Z,31.00
2018-09-20T17:13:43.343Z,32.10
2018-09-20T17:16:12.024Z,33.00
2018-09-20T17:18:40.508Z,34.00
2018-09-20T17:21:09.680Z,35.00
2018-09-20T17:23:38.242Z,35.70
2018-09-20T17:26:07.333Z,36.60
2018-09-20T17:28:36.503Z,37.30
2018-09-20T17:31:05.469Z,37.90
2018-09-20T17:33:34.144Z,38.80
2018-09-20T17:36:02.988Z,39.30
2018-09-20T17:38:32.541Z,39.80
2018-09-20T17:41:05.130Z,40.70
2018-09-20T17:43:45.450Z,41.20
2018-09-20T17:46:14.165Z,41.80
2018-09-20T17:48:42.740Z,42.30
2018-09-20T17:51:12.787Z,42.90
2018-09-20T17:53:42.613Z,43.50
2018-09-20T17:56:12.116Z,43.70
2018-09-20T17:58:41.325Z,44.30
2018-09-20T18:01:09.869Z,44.60
2018-09-20T18:03:38.709Z,45.30
2018-09-20T18:06:07.285Z,46.30
2018-09-20T18:08:36.124Z,46.70
2018-09-20T18:11:04.805Z,47.10
2018-09-20T18:13:33.351Z,47.30
2018-09-20T18:16:01.888Z,47.70
2018-09-20T18:18:32.232Z,47.90
2018-09-20T18:21:02.960Z,48.30
2018-09-20T18:23:31.712Z,48.70
2018-09-20T18:26:00.255Z,49.50
2018-09-20T18:28:31.373Z,50.00
2018-09-20T18:31:01.176Z,50.30
2018-09-20T18:33:30.018Z,50.50
2018-09-20T18:36:01.731Z,50.60
2018-09-20T18:38:30.279Z,50.80
2018-09-20T18:40:59.343Z,51.00
2018-09-20T18:43:27.917Z,51.30
2018-09-20T18:45:56.555Z,51.50
2018-09-20T18:48:25.481Z,51.90
2018-09-20T18:51:00.301Z,52.20
2018-09-20T18:53:29.273Z,52.60
2018-09-20T18:55:57.824Z,52.90
2018-09-20T18:58:27.290Z,53.00
2018-09-20T19:00:56.062Z,53.30
2018-09-20T19:03:24.582Z,53.50
2018-09-20T19:05:54.024Z,53.70
2018-09-20T19:08:22.584Z,54.30
2018-09-20T19:10:51.161Z,55.20
2018-09-20T19:13:19.683Z,56.00
2018-09-20T19:15:48.858Z,56.30
2018-09-20T19:18:17.402Z,57.10
2018-09-20T19:20:46.108Z,57.20
2018-09-20T19:23:14.911Z,57.90
2018-09-20T19:25:43.578Z,58.00
2018-09-20T19:28:12.130Z,58.10
2018-09-20T19:30:40.906Z,58.30
2018-09-20T19:33:09.479Z,58.30
2018-09-20T19:35:42.079Z,58.70
2018-09-20T19:38:10.653Z,58.80
2018-09-20T19:40:39.948Z,58.90
2018-09-20T19:43:09.124Z,59.00
2018-09-20T19:45:37.705Z,59.10
2018-09-20T19:48:06.296Z,59.40
2018-09-20T19:50:35.586Z,59.40
2018-09-20T19:53:04.145Z,59.70
2018-09-20T19:55:32.868Z,59.80
2018-09-20T19:58:01.420Z,60.10
2018-09-20T20:00:30.062Z,60.30
2018-09-20T20:02:58.656Z,60.80
2018-09-20T20:05:27.394Z,61.30
2018-09-20T20:07:55.988Z,61.40
2018-09-20T20:10:25.652Z,61.90
2018-09-20T20:12:54.193Z,62.40
2018-09-20T20:15:22.770Z,62.60
2018-09-20T20:17:51.336Z,63.20
2018-09-20T20:20:19.947Z,63.70
2018-09-20T20:22:48.500Z,63.50
2018-09-20T20:25:17.058Z,63.90
2018-09-20T20:27:45.669Z,64.50
2018-09-20T20:30:14.262Z,64.70
2018-09-20T20:32:42.865Z,64.90
2018-09-20T20:35:11.484Z,65.20
2018-09-20T20:37:40.130Z,65.40
2018-09-20T20:40:08.688Z,66.20
2018-09-20T20:42:37.258Z,66.40
2018-09-20T20:45:05.911Z,66.40
2018-09-20T20:47:34.431Z,66.80
2018-09-20T20:50:02.947Z,66.80
2018-09-20T20:52:31.498Z,67.10
2018-09-20T20:55:00.012Z,67.10
2018-09-20T20:57:28.574Z,67.50
2018-09-20T20:59:57.409Z,67.50
2018-09-20T21:02:27.396Z,67.60
2018-09-20T21:04:56.029Z,67.70
2018-09-20T21:07:25.070Z,68.10
2018-09-20T21:09:54.669Z,68.30
2018-09-20T21:12:23.222Z,68.70
2018-09-20T21:14:51.746Z,68.40
2018-09-20T21:17:20.336Z,68.30
2018-09-20T21:19:48.836Z,68.10
2018-09-20T21:22:17.374Z,68.10
2018-09-20T21:24:45.958Z,68.30
2018-09-20T21:27:14.633Z,67.90
2018-09-20T21:29:43.175Z,68.00
2018-09-20T21:32:12.407Z,67.60
2018-09-20T21:34:41.153Z,66.90
2018-09-20T21:37:09.671Z,67.30
2018-09-20T21:39:38.323Z,67.20
2018-09-20T21:42:06.885Z,67.00
2018-09-20T21:44:35.455Z,66.70
2018-09-20T21:47:04.331Z,66.50
2018-09-20T21:49:32.885Z,66.00
2018-09-20T21:52:01.396Z,65.80
2018-09-20T21:54:29.964Z,65.20
2018-09-20T21:56:58.510Z,65.60
2018-09-20T21:59:27.083Z,64.50
2018-09-20T22:02:03.681Z,64.50
2018-09-20T22:04:33.121Z,64.20
2018-09-20T22:07:01.804Z,64.20
2018-09-20T22:09:30.978Z,63.90
2018-09-20T22:11:59.542Z,64.10
2018-09-20T22:14:28.227Z,63.90
2018-09-20T22:17:27.255Z,63.90
2018-09-20T22:19:55.827Z,64.30
2018-09-20T22:22:24.383Z,64.10
2018-09-20T22:24:52.945Z,64.00
2018-09-20T22:27:22.255Z,64.10
2018-09-20T22:29:50.863Z,63.60
2018-09-20T22:32:19.559Z,64.70
2018-09-20T22:34:48.149Z,64.50
2018-09-20T22:37:16.733Z,64.50
2018-09-20T22:39:45.534Z,64.60
2018-09-20T22:42:14.107Z,65.00
2018-09-20T22:44:42.822Z,64.80
2018-09-20T22:47:11.321Z,64.90
2018-09-20T22:49:39.868Z,64.80
2018-09-20T22:52:08.428Z,64.80
2018-09-20T22:54:36.998Z,64.20
2018-09-20T22:57:05.768Z,64.00
2018-09-20T22:59:34.630Z,63.90
2018-09-20T23:02:03.188Z,63.50
2018-09-20T23:04:31.757Z,63.10
2018-09-20T23:07:00.350Z,62.90
2018-09-20T23:09:28.901Z,62.60
2018-09-20T23:11:57.508Z,62.20
2018-09-20T23:14:26.057Z,62.10
2018-09-20T23:16:55.053Z,61.90
2018-09-20T23:19:23.694Z,61.70
2018-09-20T23:21:52.438Z,61.60
2018-09-20T23:24:21.568Z,61.60
2018-09-20T23:26:50.115Z,61.50
2018-09-20T23:29:19.377Z,61.40
2018-09-20T23:31:47.964Z,61.50
2018-09-20T23:34:16.529Z,61.30
2018-09-20T23:36:45.742Z,61.20
2018-09-20T23:39:14.445Z,61.30
2018-09-20T23:41:43.000Z,61.50
2018-09-20T23:44:11.540Z,61.60
2018-09-20T23:46:40.112Z,61.70
2018-09-20T23:49:08.705Z,61.90
2018-09-20T23:51:37.237Z,61.90
2018-09-20T23:54:06.067Z,62.50
2018-09-20T23:56:34.637Z,62.60
2018-09-20T23:59:03.199Z,63.20
